SAA022 FAOR-FVRG
Flight info
| Callsign | SAA022 |
|---|---|
| Flight time | 1h 17m |
| Altitude | 37000 |
| Route | VASUR3B VASUR DCT GABNA/N0380F270 UA405 GWV DCT VMV UR409 AXILA UR525 VHA |
| Aircraft | A20N/M-SDE2E3FGHIRWXY/LB1 |
Departure
| Time | 2026-05-07 18:36 |
|---|---|
| Airport | O.R. Tambo International Airport (FAOR) |
Arrival
| Time | 2026-05-07 19:54 |
|---|---|
| Airport | Robert Gabriel Mugabe International Airport (FVRG) |
| Time | Latitude | Longitude | Altitude | Speed | Heading |
|---|---|---|---|---|---|
| 2026-05-07 18:12 | -26.13674 | 28.23024 | 5546 ft | 0 kts | 6° |
| 2026-05-07 18:26 | -26.13695 | 28.23020 | 5552 ft | 4 kts | 8° |
| 2026-05-07 18:26 | -26.13718 | 28.23017 | 5551 ft | 4 kts | 22° |
| 2026-05-07 18:27 | -26.13734 | 28.23000 | 5547 ft | 4 kts | 86° |
| 2026-05-07 18:27 | -26.13733 | 28.22971 | 5546 ft | 3 kts | 97° |
| 2026-05-07 18:27 | -26.13732 | 28.22968 | 5546 ft | 0 kts | 96° |
| 2026-05-07 18:30 | -26.13734 | 28.22989 | 5546 ft | 9 kts | 96° |
| 2026-05-07 18:30 | -26.13744 | 28.23087 | 5548 ft | 15 kts | 96° |
| 2026-05-07 18:30 | -26.13756 | 28.23211 | 5548 ft | 13 kts | 96° |
| 2026-05-07 18:31 | -26.13762 | 28.23323 | 5546 ft | 15 kts | 90° |
| 2026-05-07 18:31 | -26.13785 | 28.23437 | 5550 ft | 13 kts | 106° |
| 2026-05-07 18:31 | -26.13759 | 28.23506 | 5552 ft | 10 kts | 22° |
| 2026-05-07 18:31 | -26.13675 | 28.23533 | 5551 ft | 15 kts | 16° |
| 2026-05-07 18:32 | -26.13560 | 28.23567 | 5550 ft | 19 kts | 16° |
| 2026-05-07 18:32 | -26.13426 | 28.23610 | 5548 ft | 21 kts | 15° |
| 2026-05-07 18:32 | -26.13274 | 28.23656 | 5545 ft | 22 kts | 15° |
| 2026-05-07 18:32 | -26.13125 | 28.23703 | 5546 ft | 23 kts | 15° |
| 2026-05-07 18:33 | -26.12968 | 28.23751 | 5545 ft | 24 kts | 15° |
| 2026-05-07 18:33 | -26.12800 | 28.23803 | 5545 ft | 27 kts | 15° |
| 2026-05-07 18:33 | -26.12637 | 28.23854 | 5541 ft | 24 kts | 15° |
| 2026-05-07 18:33 | -26.12468 | 28.23907 | 5538 ft | 26 kts | 15° |
| 2026-05-07 18:34 | -26.12294 | 28.23960 | 5535 ft | 26 kts | 15° |
| 2026-05-07 18:34 | -26.12116 | 28.24015 | 5532 ft | 24 kts | 15° |
| 2026-05-07 18:34 | -26.11957 | 28.24066 | 5529 ft | 25 kts | 16° |
| 2026-05-07 18:34 | -26.11849 | 28.24113 | 5526 ft | 12 kts | 52° |
| 2026-05-07 18:35 | -26.11849 | 28.24201 | 5527 ft | 12 kts | 107° |
| 2026-05-07 18:35 | -26.11892 | 28.24277 | 5528 ft | 12 kts | 158° |
| 2026-05-07 18:35 | -26.12018 | 28.24248 | 5527 ft | 41 kts | 195° |
| 2026-05-07 18:35 | -26.12512 | 28.24094 | 5537 ft | 103 kts | 195° |
| 2026-05-07 18:36 | -26.13375 | 28.23826 | 5546 ft | 152 kts | 195° |
| 2026-05-07 18:36 | -26.14392 | 28.23484 | 6130 ft | 151 kts | 199° |
| 2026-05-07 18:36 | -26.15375 | 28.23148 | 6922 ft | 143 kts | 197° |
| 2026-05-07 18:36 | -26.16331 | 28.22866 | 7477 ft | 147 kts | 197° |
| 2026-05-07 18:37 | -26.17383 | 28.22555 | 7803 ft | 167 kts | 198° |
| 2026-05-07 18:37 | -26.18577 | 28.22193 | 8205 ft | 188 kts | 198° |
| 2026-05-07 18:37 | -26.19899 | 28.21749 | 8645 ft | 210 kts | 207° |
| 2026-05-07 18:37 | -26.21043 | 28.20639 | 9082 ft | 232 kts | 238° |
| 2026-05-07 18:38 | -26.21535 | 28.18852 | 9627 ft | 257 kts | 266° |
| 2026-05-07 18:38 | -26.21154 | 28.16839 | 10304 ft | 277 kts | 294° |
| 2026-05-07 18:38 | -26.19923 | 28.15100 | 10923 ft | 302 kts | 316° |
| 2026-05-07 18:38 | -26.17985 | 28.13940 | 11343 ft | 334 kts | 339° |
| 2026-05-07 18:39 | -26.15605 | 28.13691 | 11998 ft | 355 kts | 2° |
| 2026-05-07 18:39 | -26.13191 | 28.14414 | 12928 ft | 365 kts | 15° |
| 2026-05-07 18:39 | -26.10780 | 28.15367 | 13767 ft | 371 kts | 15° |
| 2026-05-07 18:39 | -26.08353 | 28.16371 | 14540 ft | 375 kts | 15° |
| 2026-05-07 18:40 | -26.05883 | 28.17335 | 15319 ft | 378 kts | 13° |
| 2026-05-07 18:40 | -26.03370 | 28.18247 | 16082 ft | 381 kts | 12° |
| 2026-05-07 18:40 | -26.00827 | 28.19124 | 16802 ft | 385 kts | 12° |
| 2026-05-07 18:40 | -25.98247 | 28.19991 | 17527 ft | 389 kts | 11° |
| 2026-05-07 18:41 | -25.95643 | 28.20859 | 18241 ft | 393 kts | 11° |
| 2026-05-07 18:41 | -25.93009 | 28.21736 | 18901 ft | 397 kts | 11° |
| 2026-05-07 18:41 | -25.90665 | 28.22517 | 19460 ft | 400 kts | 11° |
| 2026-05-07 18:41 | -25.87991 | 28.23408 | 20087 ft | 404 kts | 11° |
| 2026-05-07 18:42 | -25.85286 | 28.24310 | 20693 ft | 408 kts | 10° |
| 2026-05-07 18:42 | -25.82557 | 28.25220 | 21309 ft | 411 kts | 10° |
| 2026-05-07 18:42 | -25.79807 | 28.26136 | 21903 ft | 415 kts | 9° |
| 2026-05-07 18:42 | -25.77315 | 28.26966 | 22438 ft | 418 kts | 9° |
| 2026-05-07 18:43 | -25.74396 | 28.27937 | 23046 ft | 423 kts | 9° |
| 2026-05-07 18:43 | -25.71699 | 28.28834 | 23555 ft | 427 kts | 9° |
| 2026-05-07 18:43 | -25.68840 | 28.29784 | 24070 ft | 430 kts | 8° |
| 2026-05-07 18:43 | -25.65964 | 28.30740 | 24576 ft | 433 kts | 8° |
| 2026-05-07 18:44 | -25.63065 | 28.31704 | 25087 ft | 436 kts | 8° |
| 2026-05-07 18:44 | -25.60150 | 28.32672 | 25595 ft | 439 kts | 8° |
| 2026-05-07 18:44 | -25.57211 | 28.33648 | 26095 ft | 442 kts | 8° |
| 2026-05-07 18:44 | -25.54260 | 28.34627 | 26574 ft | 445 kts | 8° |
| 2026-05-07 18:45 | -25.51282 | 28.35614 | 27046 ft | 448 kts | 8° |
| 2026-05-07 18:45 | -25.48282 | 28.36608 | 27512 ft | 451 kts | 8° |
| 2026-05-07 18:45 | -25.45268 | 28.37607 | 27962 ft | 454 kts | 8° |
| 2026-05-07 18:45 | -25.42232 | 28.38612 | 28398 ft | 457 kts | 7° |
| 2026-05-07 18:46 | -25.39175 | 28.39623 | 28818 ft | 460 kts | 7° |
| 2026-05-07 18:46 | -25.36104 | 28.40638 | 29223 ft | 462 kts | 7° |
| 2026-05-07 18:46 | -25.33014 | 28.41659 | 29619 ft | 465 kts | 7° |
| 2026-05-07 18:46 | -25.29905 | 28.42685 | 30001 ft | 468 kts | 7° |
| 2026-05-07 18:47 | -25.26778 | 28.43717 | 30366 ft | 470 kts | 7° |
| 2026-05-07 18:47 | -25.23639 | 28.44752 | 30707 ft | 472 kts | 7° |
| 2026-05-07 18:47 | -25.20488 | 28.45792 | 31071 ft | 474 kts | 7° |
| 2026-05-07 18:47 | -25.17322 | 28.46835 | 31444 ft | 475 kts | 7° |
| 2026-05-07 18:48 | -25.14162 | 28.47877 | 31906 ft | 473 kts | 7° |
| 2026-05-07 18:48 | -25.11008 | 28.48918 | 32389 ft | 472 kts | 7° |
| 2026-05-07 18:48 | -25.07874 | 28.49950 | 32846 ft | 470 kts | 7° |
| 2026-05-07 18:48 | -25.04741 | 28.50981 | 33271 ft | 469 kts | 7° |
| 2026-05-07 18:49 | -25.01656 | 28.51994 | 33709 ft | 468 kts | 7° |
| 2026-05-07 18:49 | -24.98538 | 28.53018 | 34132 ft | 467 kts | 7° |
| 2026-05-07 18:49 | -24.95432 | 28.54037 | 34506 ft | 465 kts | 7° |
| 2026-05-07 18:49 | -24.92336 | 28.55053 | 34861 ft | 464 kts | 6° |
| 2026-05-07 18:50 | -24.89242 | 28.56068 | 35201 ft | 463 kts | 6° |
| 2026-05-07 18:50 | -24.86161 | 28.57077 | 35529 ft | 462 kts | 6° |
| 2026-05-07 18:50 | -24.83086 | 28.58084 | 35851 ft | 461 kts | 6° |
| 2026-05-07 18:50 | -24.80017 | 28.59089 | 36163 ft | 460 kts | 6° |
| 2026-05-07 18:51 | -24.76949 | 28.60093 | 36485 ft | 459 kts | 6° |
| 2026-05-07 18:51 | -24.73888 | 28.61094 | 36763 ft | 458 kts | 6° |
| 2026-05-07 18:51 | -24.70834 | 28.62093 | 37040 ft | 458 kts | 6° |
| 2026-05-07 18:51 | -24.67780 | 28.63090 | 37158 ft | 457 kts | 6° |
| 2026-05-07 18:52 | -24.64739 | 28.64083 | 37169 ft | 456 kts | 6° |
| 2026-05-07 18:52 | -24.58649 | 28.66070 | 37165 ft | 456 kts | 6° |
| 2026-05-07 18:53 | -24.52555 | 28.68055 | 37170 ft | 457 kts | 6° |
| 2026-05-07 18:53 | -24.46461 | 28.70040 | 37171 ft | 457 kts | 6° |
| 2026-05-07 18:54 | -24.40366 | 28.72023 | 37170 ft | 457 kts | 6° |
| 2026-05-07 18:54 | -24.34268 | 28.74005 | 37172 ft | 457 kts | 6° |
| 2026-05-07 18:55 | -24.28160 | 28.75988 | 37175 ft | 458 kts | 6° |
| 2026-05-07 18:55 | -24.22053 | 28.77969 | 37178 ft | 458 kts | 6° |
| 2026-05-07 18:56 | -24.15981 | 28.79937 | 37170 ft | 459 kts | 7° |
| 2026-05-07 18:56 | -24.09857 | 28.81921 | 37164 ft | 459 kts | 7° |
| 2026-05-07 18:57 | -24.03732 | 28.83902 | 37168 ft | 459 kts | 7° |
| 2026-05-07 18:57 | -23.97608 | 28.85881 | 37170 ft | 459 kts | 7° |
| 2026-05-07 18:58 | -23.91475 | 28.87861 | 37169 ft | 459 kts | 7° |
| 2026-05-07 18:58 | -23.85340 | 28.89840 | 37166 ft | 459 kts | 7° |
| 2026-05-07 18:59 | -23.79212 | 28.91815 | 37165 ft | 459 kts | 7° |
| 2026-05-07 18:59 | -23.73082 | 28.93789 | 37156 ft | 459 kts | 7° |
| 2026-05-07 19:00 | -23.66957 | 28.95759 | 37148 ft | 459 kts | 7° |
| 2026-05-07 19:00 | -23.60834 | 28.97726 | 37153 ft | 459 kts | 7° |
| 2026-05-07 19:01 | -23.54755 | 28.99678 | 37145 ft | 458 kts | 7° |
| 2026-05-07 19:01 | -23.48645 | 29.01638 | 37137 ft | 458 kts | 7° |
| 2026-05-07 19:02 | -23.42536 | 29.03595 | 37136 ft | 457 kts | 7° |
| 2026-05-07 19:02 | -23.36433 | 29.05548 | 37134 ft | 457 kts | 7° |
| 2026-05-07 19:03 | -23.30330 | 29.07499 | 37133 ft | 457 kts | 7° |
| 2026-05-07 19:03 | -23.24222 | 29.09451 | 37128 ft | 457 kts | 7° |
| 2026-05-07 19:04 | -23.18107 | 29.11402 | 37127 ft | 458 kts | 7° |
| 2026-05-07 19:04 | -23.11997 | 29.13350 | 37126 ft | 458 kts | 7° |
| 2026-05-07 19:05 | -23.05875 | 29.15301 | 37125 ft | 458 kts | 7° |
| 2026-05-07 19:05 | -22.99797 | 29.17235 | 37125 ft | 458 kts | 7° |
| 2026-05-07 19:06 | -22.93677 | 29.19181 | 37115 ft | 458 kts | 7° |
| 2026-05-07 19:06 | -22.84490 | 29.22099 | 37110 ft | 459 kts | 7° |
| 2026-05-07 19:07 | -22.78328 | 29.24053 | 37105 ft | 459 kts | 7° |
| 2026-05-07 19:07 | -22.72241 | 29.25982 | 37102 ft | 459 kts | 7° |
| 2026-05-07 19:08 | -22.66108 | 29.27924 | 37096 ft | 459 kts | 7° |
| 2026-05-07 19:08 | -22.59970 | 29.29865 | 37101 ft | 460 kts | 7° |
| 2026-05-07 19:09 | -22.53828 | 29.31806 | 37099 ft | 460 kts | 7° |
| 2026-05-07 19:09 | -22.47682 | 29.33747 | 37098 ft | 461 kts | 7° |
| 2026-05-07 19:10 | -22.41520 | 29.35691 | 37093 ft | 461 kts | 7° |
| 2026-05-07 19:10 | -22.35365 | 29.37631 | 37092 ft | 461 kts | 7° |
| 2026-05-07 19:11 | -22.29196 | 29.39574 | 37086 ft | 462 kts | 8° |
| 2026-05-07 19:11 | -22.23143 | 29.42123 | 37081 ft | 474 kts | 19° |
| 2026-05-07 19:12 | -22.17424 | 29.45803 | 37084 ft | 480 kts | 24° |
| 2026-05-07 19:12 | -22.11793 | 29.49592 | 37080 ft | 481 kts | 24° |
| 2026-05-07 19:13 | -22.06105 | 29.53401 | 37082 ft | 481 kts | 24° |
| 2026-05-07 19:13 | -22.00420 | 29.57204 | 37080 ft | 481 kts | 24° |
| 2026-05-07 19:14 | -21.94726 | 29.61008 | 37081 ft | 482 kts | 24° |
| 2026-05-07 19:14 | -21.89028 | 29.64813 | 37080 ft | 482 kts | 24° |
| 2026-05-07 19:15 | -21.83330 | 29.68613 | 37084 ft | 482 kts | 24° |
| 2026-05-07 19:15 | -21.77732 | 29.72343 | 37084 ft | 482 kts | 24° |
| 2026-05-07 19:16 | -21.71968 | 29.76180 | 37085 ft | 482 kts | 24° |
| 2026-05-07 19:16 | -21.66272 | 29.79968 | 37083 ft | 482 kts | 24° |
| 2026-05-07 19:17 | -21.60570 | 29.83756 | 37082 ft | 482 kts | 24° |
| 2026-05-07 19:17 | -21.54867 | 29.87542 | 37080 ft | 482 kts | 24° |
| 2026-05-07 19:18 | -21.49164 | 29.91324 | 37078 ft | 482 kts | 24° |
| 2026-05-07 19:18 | -21.43462 | 29.95102 | 37079 ft | 481 kts | 24° |
| 2026-05-07 19:19 | -21.37767 | 29.98872 | 37082 ft | 481 kts | 24° |
| 2026-05-07 19:19 | -21.32100 | 30.02620 | 37065 ft | 481 kts | 24° |
| 2026-05-07 19:20 | -21.27331 | 30.05771 | 37070 ft | 481 kts | 24° |
| 2026-05-07 19:20 | -21.21631 | 30.09534 | 37064 ft | 481 kts | 24° |
| 2026-05-07 19:21 | -21.15934 | 30.13293 | 37065 ft | 481 kts | 24° |
| 2026-05-07 19:21 | -21.10235 | 30.17048 | 37061 ft | 481 kts | 24° |
| 2026-05-07 19:22 | -21.04528 | 30.20806 | 37065 ft | 481 kts | 24° |
| 2026-05-07 19:22 | -20.98819 | 30.24561 | 37064 ft | 482 kts | 24° |
| 2026-05-07 19:23 | -20.93101 | 30.28319 | 37060 ft | 483 kts | 24° |
| 2026-05-07 19:23 | -20.87376 | 30.32078 | 37065 ft | 483 kts | 24° |
| 2026-05-07 19:24 | -20.81640 | 30.35841 | 37069 ft | 484 kts | 24° |
| 2026-05-07 19:24 | -20.75896 | 30.39607 | 37068 ft | 485 kts | 24° |
| 2026-05-07 19:25 | -20.70143 | 30.43375 | 37071 ft | 485 kts | 23° |
| 2026-05-07 19:25 | -20.64380 | 30.47146 | 37075 ft | 486 kts | 23° |
| 2026-05-07 19:26 | -20.58615 | 30.50914 | 37078 ft | 486 kts | 23° |
| 2026-05-07 19:26 | -20.52837 | 30.54687 | 37075 ft | 487 kts | 23° |
| 2026-05-07 19:27 | -20.47059 | 30.58459 | 37074 ft | 486 kts | 23° |
| 2026-05-07 19:27 | -20.41278 | 30.62226 | 37077 ft | 487 kts | 23° |
| 2026-05-07 19:28 | -20.35493 | 30.65994 | 37076 ft | 488 kts | 23° |
| 2026-05-07 19:28 | -20.29698 | 30.69765 | 37105 ft | 488 kts | 22° |
| 2026-05-07 19:29 | -20.23905 | 30.73532 | 37129 ft | 488 kts | 22° |
| 2026-05-07 19:29 | -20.18100 | 30.77302 | 37141 ft | 489 kts | 22° |
| 2026-05-07 19:30 | -20.12285 | 30.81076 | 37156 ft | 489 kts | 22° |
| 2026-05-07 19:30 | -20.06459 | 30.84825 | 37155 ft | 487 kts | 20° |
| 2026-05-07 19:31 | -20.00408 | 30.87873 | 37156 ft | 480 kts | 14° |
| 2026-05-07 19:31 | -19.94302 | 30.90767 | 37097 ft | 481 kts | 14° |
| 2026-05-07 19:32 | -19.88195 | 30.93669 | 37096 ft | 481 kts | 14° |
| 2026-05-07 19:32 | -19.82087 | 30.96567 | 37105 ft | 481 kts | 14° |
| 2026-05-07 19:33 | -19.75973 | 30.99466 | 37118 ft | 481 kts | 14° |
| 2026-05-07 19:33 | -19.69858 | 31.02362 | 37116 ft | 482 kts | 14° |
| 2026-05-07 19:34 | -19.63810 | 31.05225 | 36849 ft | 480 kts | 14° |
| 2026-05-07 19:34 | -19.60754 | 31.06670 | 36244 ft | 482 kts | 14° |
| 2026-05-07 19:34 | -19.57676 | 31.08120 | 35405 ft | 487 kts | 15° |
| 2026-05-07 19:35 | -19.54565 | 31.09583 | 34447 ft | 493 kts | 15° |
| 2026-05-07 19:35 | -19.51439 | 31.11053 | 33421 ft | 499 kts | 16° |
| 2026-05-07 19:35 | -19.48290 | 31.12537 | 32609 ft | 496 kts | 17° |
| 2026-05-07 19:35 | -19.45144 | 31.14022 | 31832 ft | 493 kts | 18° |
| 2026-05-07 19:36 | -19.42024 | 31.15494 | 31045 ft | 490 kts | 18° |
| 2026-05-07 19:36 | -19.38921 | 31.16957 | 30269 ft | 486 kts | 19° |
| 2026-05-07 19:36 | -19.35854 | 31.18402 | 29644 ft | 478 kts | 19° |
| 2026-05-07 19:36 | -19.32843 | 31.19824 | 29078 ft | 470 kts | 19° |
| 2026-05-07 19:37 | -19.29882 | 31.21220 | 28515 ft | 462 kts | 19° |
| 2026-05-07 19:37 | -19.26973 | 31.22590 | 27971 ft | 454 kts | 19° |
| 2026-05-07 19:37 | -19.24102 | 31.23941 | 27408 ft | 448 kts | 19° |
| 2026-05-07 19:37 | -19.21277 | 31.25270 | 26876 ft | 442 kts | 19° |
| 2026-05-07 19:38 | -19.18483 | 31.26584 | 26344 ft | 436 kts | 19° |
| 2026-05-07 19:38 | -19.15726 | 31.27879 | 25809 ft | 431 kts | 19° |
| 2026-05-07 19:38 | -19.12988 | 31.29139 | 25290 ft | 425 kts | 16° |
| 2026-05-07 19:38 | -19.10160 | 31.29874 | 24750 ft | 413 kts | 2° |
| 2026-05-07 19:39 | -19.07331 | 31.29844 | 24266 ft | 402 kts | 348° |
| 2026-05-07 19:39 | -19.04658 | 31.29128 | 23776 ft | 392 kts | 337° |
| 2026-05-07 19:39 | -19.02098 | 31.28158 | 23223 ft | 388 kts | 337° |
| 2026-05-07 19:39 | -18.99578 | 31.27211 | 22773 ft | 381 kts | 337° |
| 2026-05-07 19:40 | -18.97131 | 31.26294 | 22308 ft | 376 kts | 337° |
| 2026-05-07 19:40 | -18.94687 | 31.25379 | 21839 ft | 371 kts | 337° |
| 2026-05-07 19:40 | -18.92270 | 31.24475 | 21376 ft | 366 kts | 337° |
| 2026-05-07 19:40 | -18.89887 | 31.23583 | 20920 ft | 361 kts | 337° |
| 2026-05-07 19:41 | -18.87495 | 31.22687 | 20462 ft | 376 kts | 338° |
| 2026-05-07 19:41 | -18.84960 | 31.21733 | 19996 ft | 394 kts | 338° |
| 2026-05-07 19:41 | -18.82370 | 31.20763 | 19595 ft | 396 kts | 338° |
| 2026-05-07 19:41 | -18.79760 | 31.19790 | 18938 ft | 400 kts | 338° |
| 2026-05-07 19:42 | -18.77150 | 31.18818 | 18410 ft | 396 kts | 338° |
| 2026-05-07 19:42 | -18.74577 | 31.17860 | 17912 ft | 388 kts | 339° |
| 2026-05-07 19:42 | -18.72063 | 31.16924 | 17417 ft | 380 kts | 339° |
| 2026-05-07 19:42 | -18.69594 | 31.16004 | 16935 ft | 372 kts | 339° |
| 2026-05-07 19:43 | -18.67174 | 31.15103 | 16458 ft | 366 kts | 339° |
| 2026-05-07 19:43 | -18.64792 | 31.14215 | 15988 ft | 360 kts | 339° |
| 2026-05-07 19:43 | -18.62446 | 31.13340 | 15527 ft | 355 kts | 339° |
| 2026-05-07 19:43 | -18.60135 | 31.12479 | 15073 ft | 350 kts | 339° |
| 2026-05-07 19:44 | -18.57854 | 31.11629 | 14631 ft | 346 kts | 340° |
| 2026-05-07 19:44 | -18.55598 | 31.10789 | 14166 ft | 342 kts | 340° |
| 2026-05-07 19:44 | -18.53363 | 31.09957 | 13728 ft | 338 kts | 340° |
| 2026-05-07 19:44 | -18.51162 | 31.09140 | 13282 ft | 333 kts | 340° |
| 2026-05-07 19:45 | -18.49024 | 31.08346 | 12871 ft | 328 kts | 340° |
| 2026-05-07 19:45 | -18.46886 | 31.07553 | 12451 ft | 324 kts | 340° |
| 2026-05-07 19:45 | -18.44773 | 31.06769 | 12039 ft | 320 kts | 340° |
| 2026-05-07 19:45 | -18.42668 | 31.05988 | 11627 ft | 331 kts | 340° |
| 2026-05-07 19:46 | -18.40400 | 31.05144 | 11186 ft | 357 kts | 340° |
| 2026-05-07 19:46 | -18.38021 | 31.04260 | 10750 ft | 365 kts | 340° |
| 2026-05-07 19:46 | -18.35652 | 31.03382 | 10639 ft | 355 kts | 340° |
| 2026-05-07 19:46 | -18.33376 | 31.02538 | 10502 ft | 340 kts | 340° |
| 2026-05-07 19:47 | -18.31197 | 31.01731 | 10378 ft | 325 kts | 340° |
| 2026-05-07 19:47 | -18.29110 | 31.00958 | 10253 ft | 311 kts | 339° |
| 2026-05-07 19:47 | -18.27114 | 31.00218 | 10114 ft | 298 kts | 339° |
| 2026-05-07 19:47 | -18.25176 | 30.99499 | 9742 ft | 294 kts | 339° |
| 2026-05-07 19:48 | -18.23252 | 30.98785 | 9297 ft | 293 kts | 339° |
| 2026-05-07 19:48 | -18.21330 | 30.98072 | 8869 ft | 292 kts | 339° |
| 2026-05-07 19:48 | -18.19420 | 30.97364 | 8447 ft | 291 kts | 339° |
| 2026-05-07 19:48 | -18.17518 | 30.96659 | 8033 ft | 289 kts | 339° |
| 2026-05-07 19:49 | -18.15620 | 30.95956 | 7626 ft | 288 kts | 339° |
| 2026-05-07 19:49 | -18.13733 | 30.95257 | 7227 ft | 287 kts | 339° |
| 2026-05-07 19:49 | -18.11832 | 30.94738 | 7022 ft | 280 kts | 359° |
| 2026-05-07 19:49 | -18.10004 | 30.95233 | 6986 ft | 268 kts | 26° |
| 2026-05-07 19:50 | -18.08439 | 30.96199 | 6976 ft | 253 kts | 31° |
| 2026-05-07 19:50 | -18.07023 | 30.97164 | 6979 ft | 238 kts | 32° |
| 2026-05-07 19:50 | -18.05702 | 30.98100 | 6981 ft | 221 kts | 33° |
| 2026-05-07 19:50 | -18.04489 | 30.98990 | 6983 ft | 205 kts | 34° |
| 2026-05-07 19:51 | -18.03312 | 30.99885 | 6988 ft | 211 kts | 36° |
| 2026-05-07 19:51 | -18.02141 | 31.00820 | 6811 ft | 212 kts | 37° |
| 2026-05-07 19:51 | -18.00987 | 31.01787 | 6528 ft | 212 kts | 38° |
| 2026-05-07 19:51 | -17.99855 | 31.02777 | 6261 ft | 212 kts | 39° |
| 2026-05-07 19:52 | -17.98757 | 31.03774 | 6014 ft | 202 kts | 40° |
| 2026-05-07 19:52 | -17.97748 | 31.04717 | 5714 ft | 186 kts | 41° |
| 2026-05-07 19:52 | -17.96833 | 31.05593 | 5435 ft | 170 kts | 42° |
| 2026-05-07 19:52 | -17.95990 | 31.06402 | 5202 ft | 158 kts | 42° |
| 2026-05-07 19:53 | -17.95208 | 31.07179 | 5004 ft | 156 kts | 46° |
| 2026-05-07 19:53 | -17.94435 | 31.07973 | 4862 ft | 152 kts | 45° |
| 2026-05-07 19:53 | -17.93804 | 31.08640 | 4874 ft | 100 kts | 45° |
| 2026-05-07 19:53 | -17.93450 | 31.09014 | 4879 ft | 54 kts | 43° |
| 2026-05-07 19:54 | -17.93188 | 31.09286 | 4885 ft | 52 kts | 45° |
| 2026-05-07 19:54 | -17.92939 | 31.09547 | 4889 ft | 49 kts | 45° |
| 2026-05-07 19:54 | -17.92698 | 31.09797 | 4890 ft | 48 kts | 44° |
| 2026-05-07 19:54 | -17.92473 | 31.10032 | 4897 ft | 35 kts | 44° |
| 2026-05-07 19:55 | -17.92385 | 31.10082 | 4902 ft | 11 kts | 322° |
| 2026-05-07 19:55 | -17.92315 | 31.10008 | 4896 ft | 18 kts | 317° |
| 2026-05-07 19:55 | -17.92216 | 31.09902 | 4896 ft | 22 kts | 310° |
| 2026-05-07 19:55 | -17.92128 | 31.09801 | 4895 ft | 18 kts | 314° |
| 2026-05-07 19:56 | -17.92068 | 31.09792 | 4892 ft | 7 kts | 64° |
| 2026-05-07 19:56 | -17.92040 | 31.09826 | 4896 ft | 4 kts | 43° |
| 2026-05-07 19:56 | -17.92037 | 31.09829 | 4897 ft | 0 kts | 46° |